Time;durP1;ratioP1;P1;durP2;ratioP2;P2;SDS_P1;SDS_P2;PMS_P1;PMS_P2;Temp;Humidity;BMP_temperature;BMP_pressure;BME280_temperature;BME280_humidity;BME280_pressure;Samples;Min_cycle;Max_cycle;Signal;HPM_P1;HPM_P2
2022/09/03 00:01:49;;;;;;;7.43;4.95;;;6.90;99.90;;;;;;6156348;23;20025;-77
2022/09/03 00:04:25;;;;;;;6.88;4.93;;;6.90;99.90;;;;;;6182646;23;20048;-78
2022/09/03 00:07:03;;;;;;;8.48;5.22;;;6.90;99.90;;;;;;6156734;23;20108;-79
2022/09/03 00:09:35;;;;;;;7.72;4.95;;;6.90;99.90;;;;;;6181540;23;20116;-78
2022/09/03 00:12:17;;;;;;;7.60;5.77;;;6.90;99.90;;;;;;6155485;23;20469;-78
2022/09/03 00:14:52;;;;;;;7.23;5.20;;;6.90;99.90;;;;;;6181873;23;20023;-78
2022/09/03 00:17:24;;;;;;;8.20;5.65;;;6.90;99.90;;;;;;6182680;23;20031;-78
2022/09/03 00:19:56;;;;;;;5.63;5.03;;;6.90;99.90;;;;;;6183096;23;20032;-78
2022/09/03 00:22:29;;;;;;;6.53;5.60;;;6.90;99.90;;;;;;6155979;23;20055;-78
2022/09/03 00:24:59;;;;;;;11.63;6.60;;;6.90;99.90;;;;;;6182121;23;20032;-76
2022/09/03 00:27:29;;;;;;;7.82;5.43;;;6.90;99.90;;;;;;6180867;23;20031;-78
2022/09/03 00:30:03;;;;;;;6.82;5.47;;;6.90;99.90;;;;;;6155828;23;20029;-78
2022/09/03 00:32:40;;;;;;;5.55;5.05;;;6.80;99.90;;;;;;6181800;23;20071;-78
2022/09/03 00:35:17;;;;;;;6.10;4.95;;;6.80;99.90;;;;;;6183741;23;20044;-78
2022/09/03 00:37:44;;;;;;;7.05;4.63;;;6.80;99.90;;;;;;6182732;23;20024;-78
2022/09/03 00:40:32;;;;;;;7.28;4.22;;;6.80;99.90;;;;;;6182945;23;20107;-78
2022/09/03 00:43:12;;;;;;;4.25;3.75;;;6.80;99.90;;;;;;6181100;23;20075;-78
2022/09/03 00:45:50;;;;;;;9.65;4.03;;;6.80;99.90;;;;;;6183118;23;20072;-77
2022/09/03 00:48:25;;;;;;;5.53;3.63;;;6.80;99.90;;;;;;6181350;23;20059;-78
2022/09/03 00:51:09;;;;;;;5.93;3.60;;;6.80;99.90;;;;;;6182692;23;20024;-77
2022/09/03 00:53:46;;;;;;;5.57;3.88;;;6.70;99.90;;;;;;6155919;23;20023;-78
2022/09/03 00:56:22;;;;;;;3.88;2.78;;;6.80;99.90;;;;;;6182723;23;20029;-77
2022/09/03 00:59:13;;;;;;;4.93;3.83;;;6.70;99.90;;;;;;6183851;23;20024;-78
2022/09/03 01:01:48;;;;;;;4.20;2.58;;;6.80;99.90;;;;;;6182024;23;20021;-78
2022/09/03 01:04:42;;;;;;;6.70;3.15;;;6.80;99.90;;;;;;6183529;23;20031;-78
2022/09/03 01:07:20;;;;;;;3.30;2.58;;;6.80;99.90;;;;;;6181518;23;20332;-78
2022/09/03 01:09:57;;;;;;;3.83;2.83;;;6.90;99.90;;;;;;6181175;23;20025;-78
2022/09/03 01:12:37;;;;;;;7.93;3.00;;;6.80;99.90;;;;;;6182213;23;20025;-79
2022/09/03 01:15:12;;;;;;;4.07;2.63;;;6.80;99.90;;;;;;6156129;23;20473;-79
2022/09/03 01:18:00;;;;;;;3.88;2.20;;;6.80;99.90;;;;;;6182306;23;20032;-78
2022/09/03 01:20:38;;;;;;;3.00;2.80;;;6.80;99.90;;;;;;6181365;23;20021;-79
2022/09/03 01:23:36;;;;;;;3.75;2.78;;;6.90;99.90;;;;;;6181898;23;20025;-78
2022/09/03 01:26:28;;;;;;;3.55;2.90;;;6.80;99.90;;;;;;6182167;23;20477;-79
2022/09/03 01:29:11;;;;;;;6.13;3.10;;;6.90;99.90;;;;;;6154267;23;20124;-78
2022/09/03 01:31:45;;;;;;;;;;;6.80;99.90;;;;;;6182417;23;20029;-79
2022/09/03 01:34:25;;;;;;;4.97;3.10;;;6.80;99.90;;;;;;6155258;23;19926;-79
2022/09/03 01:37:02;;;;;;;3.50;2.92;;;6.80;99.90;;;;;;6156028;23;20047;-79
2022/09/03 01:39:45;;;;;;;3.38;2.70;;;6.80;99.90;;;;;;6129033;23;20025;-79
2022/09/03 01:42:24;;;;;;;3.22;2.80;;;6.80;99.90;;;;;;6155349;23;20021;-79
2022/09/03 01:45:34;;;;;;;2.72;2.50;;;6.80;99.90;;;;;;6182831;23;20025;-79
2022/09/03 01:48:26;;;;;;;5.68;3.00;;;6.80;99.90;;;;;;6179896;23;20466;-79
2022/09/03 01:50:59;;;;;;;3.53;2.80;;;6.80;99.90;;;;;;6181529;23;20025;-79
2022/09/03 01:53:46;;;;;;;2.75;2.55;;;6.80;99.90;;;;;;6182344;23;20489;-79
2022/09/03 01:56:33;;;;;;;4.10;2.75;;;6.80;99.90;;;;;;6179053;23;20087;-79
2022/09/03 01:59:09;;;;;;;3.25;2.45;;;6.80;99.90;;;;;;6182844;23;20096;-79
2022/09/03 02:01:47;;;;;;;2.88;2.38;;;6.80;99.90;;;;;;6153578;23;20104;-79
2022/09/03 02:04:22;;;;;;;3.15;2.58;;;6.70;99.90;;;;;;6182371;23;20029;-79
2022/09/03 02:06:49;;;;;;;2.65;2.45;;;6.70;99.90;;;;;;6154003;23;20112;-79
2022/09/03 02:09:17;;;;;;;4.47;3.55;;;6.70;99.90;;;;;;6182125;23;20029;-79
2022/09/03 02:11:50;;;;;;;3.25;2.95;;;6.70;99.90;;;;;;6155591;23;20029;-79
2022/09/03 02:14:18;;;;;;;;;;;6.70;99.90;;;;;;6182330;23;20598;-78
2022/09/03 02:16:46;;;;;;;3.15;2.60;;;6.70;99.90;;;;;;6180507;23;19924;-79
2022/09/03 02:19:17;;;;;;;3.38;2.63;;;6.70;99.90;;;;;;6181844;23;20051;-79
2022/09/03 02:21:51;;;;;;;4.10;2.90;;;6.70;99.90;;;;;;6182466;23;20045;-78
2022/09/03 02:24:19;;;;;;;3.85;2.88;;;6.70;99.90;;;;;;6154466;23;20493;-78
2022/09/03 02:26:46;;;;;;;3.83;2.60;;;6.70;99.90;;;;;;6181249;23;20025;-78
2022/09/03 02:29:16;;;;;;;4.72;2.80;;;6.70;99.90;;;;;;6182741;23;20024;-78
2022/09/03 02:31:44;;;;;;;3.10;2.80;;;6.70;99.90;;;;;;6182880;23;20073;-79
2022/09/03 02:34:13;;;;;;;4.57;2.58;;;6.80;99.90;;;;;;6154086;23;20021;-79
2022/09/03 02:36:44;;;;;;;6.05;2.95;;;6.80;99.90;;;;;;6155367;23;20017;-79
2022/09/03 02:39:13;;;;;;;3.78;2.70;;;6.80;99.90;;;;;;6180675;23;20032;-79
2022/09/03 02:41:41;;;;;;;4.47;2.58;;;6.80;99.90;;;;;;6181365;23;20021;-79
2022/09/03 02:44:14;;;;;;;30.88;5.15;;;6.80;99.90;;;;;;6178382;23;20032;-78
2022/09/03 02:46:45;;;;;;;53.38;8.00;;;6.80;99.90;;;;;;6153978;23;20021;-78
2022/09/03 02:49:14;;;;;;;58.47;7.50;;;6.80;99.90;;;;;;6155109;23;20025;-78
2022/09/03 02:51:44;;;;;;;32.08;6.63;;;6.90;99.90;;;;;;6182400;23;20433;-77
2022/09/03 02:54:12;;;;;;;35.10;6.80;;;6.90;99.90;;;;;;6183209;23;20114;-79
2022/09/03 02:56:40;;;;;;;32.10;6.13;;;6.90;99.90;;;;;;6183719;23;20031;-79
2022/09/03 02:59:09;;;;;;;31.67;5.75;;;7.00;99.90;;;;;;6183769;23;20039;-79
2022/09/03 03:01:37;;;;;;;10.20;4.30;;;7.00;99.90;;;;;;6155580;23;20112;-79
2022/09/03 03:04:04;;;;;;;18.58;5.85;;;7.00;99.90;;;;;;6183463;23;20021;-79
2022/09/03 03:06:36;;;;;;;13.07;4.30;;;7.00;99.90;;;;;;6156981;23;20025;-79
2022/09/03 03:09:04;;;;;;;11.18;4.35;;;7.00;99.90;;;;;;6156709;23;20028;-75
2022/09/03 03:11:32;;;;;;;5.22;3.08;;;7.00;99.90;;;;;;6153983;23;20064;-74
2022/09/03 03:13:59;;;;;;;6.97;3.10;;;7.10;99.90;;;;;;6181858;23;20032;-74
2022/09/03 03:16:26;;;;;;;8.40;3.10;;;7.10;99.90;;;;;;6155592;23;20032;-74
2022/09/03 03:18:56;;;;;;;8.38;4.28;;;7.10;99.90;;;;;;6182941;23;20159;-74
2022/09/03 03:21:23;;;;;;;7.03;3.35;;;7.20;99.90;;;;;;6155171;23;20025;-75
2022/09/03 03:23:52;;;;;;;9.90;3.83;;;7.20;99.90;;;;;;6183005;23;20021;-75
2022/09/03 03:26:21;;;;;;;11.30;3.80;;;7.20;99.90;;;;;;6184000;23;20025;-74
2022/09/03 03:28:52;;;;;;;10.55;3.45;;;7.30;99.90;;;;;;6181632;23;20021;-74
2022/09/03 03:31:22;;;;;;;12.57;3.65;;;7.30;99.90;;;;;;6183156;23;20343;-75
2022/09/03 03:33:52;;;;;;;6.15;3.15;;;7.30;99.90;;;;;;6181672;23;20032;-74
2022/09/03 03:36:20;;;;;;;9.00;3.38;;;7.20;99.90;;;;;;6181466;23;20063;-74
2022/09/03 03:38:48;;;;;;;8.57;3.60;;;7.20;99.90;;;;;;6180036;23;20021;-74
2022/09/03 03:41:20;;;;;;;6.93;3.72;;;7.20;99.90;;;;;;6183506;23;20020;-75
2022/09/03 03:43:48;;;;;;;26.27;4.88;;;7.20;99.90;;;;;;6181209;23;20024;-74
2022/09/03 03:46:15;;;;;;;33.42;5.45;;;7.20;99.90;;;;;;6183199;23;20075;-74
2022/09/03 03:48:42;;;;;;;27.25;5.78;;;7.10;99.90;;;;;;6181015;23;20028;-74
2022/09/03 03:51:10;;;;;;;21.83;4.95;;;7.20;99.90;;;;;;6182348;23;20466;-75
2022/09/03 03:53:39;;;;;;;11.63;3.53;;;7.20;99.90;;;;;;6181922;23;20025;-74
2022/09/03 03:56:09;;;;;;;12.50;4.32;;;7.20;99.90;;;;;;6182178;23;20059;-75
2022/09/03 03:58:42;;;;;;;16.45;4.40;;;7.20;99.90;;;;;;6182135;23;20424;-74
2022/09/03 04:01:13;;;;;;;13.35;3.53;;;7.20;99.90;;;;;;6181397;23;20025;-74
2022/09/03 04:03:41;;;;;;;18.00;4.47;;;7.30;99.90;;;;;;6182547;23;20047;-72
2022/09/03 04:06:10;;;;;;;15.60;5.22;;;7.30;99.90;;;;;;6181607;23;20021;-73
2022/09/03 04:08:40;;;;;;;22.30;5.03;;;7.30;99.90;;;;;;6182624;23;20335;-74
2022/09/03 04:11:09;;;;;;;22.75;6.03;;;7.30;99.90;;;;;;6182040;23;20494;-73
2022/09/03 04:13:40;;;;;;;16.90;5.15;;;7.40;99.90;;;;;;6182323;23;20463;-73
2022/09/03 04:16:09;;;;;;;15.32;5.32;;;7.40;99.90;;;;;;6181594;23;20029;-73
2022/09/03 04:18:38;;;;;;;12.82;4.75;;;7.40;99.90;;;;;;6182914;23;20250;-72
2022/09/03 04:21:08;;;;;;;22.58;6.50;;;7.50;99.90;;;;;;6156884;23;20039;-72
2022/09/03 04:23:39;;;;;;;17.55;4.72;;;7.50;99.90;;;;;;6182817;23;20021;-73
2022/09/03 04:26:08;;;;;;;17.60;5.25;;;7.50;99.90;;;;;;6153823;23;20024;-74
2022/09/03 04:28:38;;;;;;;18.90;6.18;;;7.50;99.90;;;;;;6154757;23;20025;-74
2022/09/03 04:31:08;;;;;;;16.27;5.75;;;7.60;99.90;;;;;;6181498;23;20028;-73
2022/09/03 04:33:38;;;;;;;13.30;5.07;;;7.60;99.90;;;;;;6154793;23;20117;-72
2022/09/03 04:36:11;;;;;;;21.83;5.40;;;7.70;99.90;;;;;;6156874;23;20025;-73
2022/09/03 04:38:41;;;;;;;11.85;5.57;;;7.80;99.90;;;;;;6182427;23;20059;-74
2022/09/03 04:41:10;;;;;;;25.33;6.78;;;7.80;99.90;;;;;;6182304;23;20016;-72
2022/09/03 04:43:41;;;;;;;14.55;5.45;;;7.90;99.90;;;;;;6179502;23;20025;-73
2022/09/03 04:46:08;;;;;;;11.57;5.43;;;7.90;99.90;;;;;;6182677;23;20021;-73
2022/09/03 04:48:37;;;;;;;14.73;6.13;;;8.00;99.90;;;;;;6179134;23;20047;-73
2022/09/03 04:51:07;;;;;;;12.23;5.80;;;8.10;99.90;;;;;;6182410;23;20427;-73
2022/09/03 04:53:36;;;;;;;15.45;6.93;;;8.20;99.90;;;;;;6180897;23;20025;-73
2022/09/03 04:56:12;;;;;;;16.38;6.00;;;8.20;99.90;;;;;;6181951;23;20025;-74
2022/09/03 04:58:43;;;;;;;12.48;5.60;;;8.40;99.90;;;;;;6182651;23;20021;-74
2022/09/03 05:01:12;;;;;;;13.55;5.50;;;8.50;99.90;;;;;;6181420;23;20024;-75
2022/09/03 05:03:40;;;;;;;13.80;4.97;;;8.50;99.90;;;;;;6181580;23;20044;-74
2022/09/03 05:06:08;;;;;;;11.73;4.03;;;8.60;99.90;;;;;;6179171;23;20087;-72
2022/09/03 05:08:36;;;;;;;5.15;3.35;;;8.60;99.90;;;;;;6181893;23;20025;-73
2022/09/03 05:11:04;;;;;;;5.68;3.65;;;8.70;99.90;;;;;;6154169;23;20025;-74
2022/09/03 05:13:34;;;;;;;5.35;3.05;;;8.80;99.90;;;;;;6180546;23;20021;-75
2022/09/03 05:16:07;;;;;;;4.07;3.03;;;9.00;99.90;;;;;;6155151;23;20490;-75
2022/09/03 05:18:36;;;;;;;3.70;3.28;;;9.20;99.90;;;;;;6182358;23;20075;-79
2022/09/03 05:21:06;;;;;;;4.13;2.80;;;9.40;99.90;;;;;;6129762;23;20493;-79
2022/09/03 05:23:38;;;;;;;4.60;2.47;;;9.50;99.90;;;;;;6181789;23;20454;-79
2022/09/03 05:26:11;;;;;;;3.40;2.60;;;9.70;99.90;;;;;;6177112;23;20541;-79
2022/09/03 05:28:42;;;;;;;4.57;2.55;;;9.80;99.90;;;;;;6152742;23;20032;-77
2022/09/03 05:31:15;;;;;;;2.75;2.22;;;9.80;99.90;;;;;;6151783;23;20035;-77
2022/09/03 05:33:45;;;;;;;4.95;2.50;;;9.70;99.90;;;;;;6179103;23;20024;-79
2022/09/03 05:36:16;;;;;;;2.60;2.22;;;9.70;99.90;;;;;;6179789;23;20079;-78
2022/09/03 05:38:46;;;;;;;2.17;1.98;;;9.60;99.90;;;;;;6127823;23;20378;-77
2022/09/03 05:41:15;;;;;;;3.60;2.90;;;9.60;99.90;;;;;;6154703;23;20047;-74
2022/09/03 05:43:44;;;;;;;2.22;2.03;;;9.70;99.90;;;;;;6180838;23;20465;-74
2022/09/03 05:46:17;;;;;;;3.60;2.00;;;9.90;99.90;;;;;;6182639;23;20640;-74
2022/09/03 05:48:45;;;;;;;4.68;2.90;;;10.30;99.90;;;;;;6129276;23;20403;-73
2022/09/03 05:51:16;;;;;;;2.47;2.28;;;11.20;99.90;;;;;;6181558;23;20208;-74
2022/09/03 05:53:46;;;;;;;2.25;2.05;;;12.10;99.90;;;;;;6181917;23;20025;-75
2022/09/03 05:56:17;;;;;;;2.85;2.47;;;13.00;99.90;;;;;;6154985;23;20060;-74
2022/09/03 05:58:47;;;;;;;2.53;2.20;;;13.80;99.90;;;;;;6179363;23;20055;-73
2022/09/03 06:01:22;;;;;;;3.33;2.85;;;14.40;99.90;;;;;;6180527;23;20025;-74
2022/09/03 06:03:57;;;;;;;2.25;2.05;;;15.10;99.90;;;;;;6156147;23;20104;-75
2022/09/03 06:06:26;;;;;;;2.70;2.50;;;15.60;99.90;;;;;;6179572;23;20112;-73
2022/09/03 06:08:56;;;;;;;2.35;2.15;;;16.00;99.90;;;;;;6181827;23;20028;-75
2022/09/03 06:11:28;;;;;;;2.97;1.90;;;16.70;99.90;;;;;;6180239;23;20029;-75
2022/09/03 06:14:00;;;;;;;2.20;2.00;;;17.30;99.90;;;;;;6181342;23;20031;-75
2022/09/03 06:16:30;;;;;;;2.30;1.90;;;17.90;99.90;;;;;;6180344;23;20087;-77
2022/09/03 06:18:59;;;;;;;2.47;1.70;;;18.30;99.90;;;;;;6182801;23;20067;-77
2022/09/03 06:21:27;;;;;;;2.45;1.90;;;18.70;99.90;;;;;;6155783;23;20058;-77
2022/09/03 06:24:00;;;;;;;2.05;1.80;;;18.70;99.90;;;;;;6154337;23;20048;-75
2022/09/03 06:26:29;;;;;;;3.45;1.80;;;18.60;99.90;;;;;;6180893;23;20029;-80
2022/09/03 06:28:58;;;;;;;4.35;1.60;;;18.90;99.90;;;;;;6180697;23;20025;-77
2022/09/03 06:31:28;;;;;;;2.55;1.80;;;19.30;99.90;;;;;;6181820;23;20029;-74
2022/09/03 06:33:56;;;;;;;5.30;2.03;;;19.80;99.90;;;;;;6155464;23;20020;-74
2022/09/03 06:36:26;;;;;;;3.58;1.73;;;20.10;99.30;;;;;;6156703;23;20025;-77
2022/09/03 06:38:57;;;;;;;3.10;1.70;;;20.00;95.30;;;;;;6156972;23;20430;-77
2022/09/03 06:41:27;;;;;;;1.88;1.77;;;19.70;93.60;;;;;;6156518;23;20064;-78
2022/09/03 06:44:01;;;;;;;2.95;1.67;;;19.50;92.80;;;;;;6182118;23;20021;-77
2022/09/03 06:46:37;;;;;;;3.58;1.85;;;19.70;93.30;;;;;;6182292;23;20029;-78
2022/09/03 06:49:07;;;;;;;4.20;1.90;;;20.00;93.00;;;;;;6156221;23;20113;-79
2022/09/03 06:51:36;;;;;;;2.38;2.17;;;20.20;92.40;;;;;;6179376;23;20048;-77
2022/09/03 06:54:06;;;;;;;1.90;1.80;;;20.50;91.40;;;;;;6128329;23;20025;-77
2022/09/03 06:56:36;;;;;;;2.00;1.80;;;20.70;89.90;;;;;;6154258;23;20021;-76
2022/09/03 06:59:07;;;;;;;2.15;1.95;;;20.80;85.70;;;;;;6180787;23;20021;-77
2022/09/03 07:01:39;;;;;;;2.00;1.80;;;21.00;85.00;;;;;;6180692;23;20067;-76
2022/09/03 07:04:09;;;;;;;4.47;2.58;;;21.20;83.80;;;;;;6154705;23;20087;-79
2022/09/03 07:06:39;;;;;;;3.83;1.73;;;21.50;82.40;;;;;;6179727;23;20367;-78
2022/09/03 07:09:07;;;;;;;5.22;2.00;;;21.60;78.90;;;;;;6181857;23;20020;-77
2022/09/03 07:11:36;;;;;;;1.88;1.77;;;21.70;76.60;;;;;;6179287;23;20024;-78
2022/09/03 07:14:05;;;;;;;2.13;1.90;;;22.00;76.70;;;;;;6181465;23;20028;-75
2022/09/03 07:16:36;;;;;;;2.47;1.73;;;22.40;74.30;;;;;;6153399;23;20029;-79
2022/09/03 07:19:06;;;;;;;2.47;1.60;;;22.60;73.10;;;;;;6154169;23;20072;-77
2022/09/03 07:21:36;;;;;;;3.90;1.85;;;22.90;71.70;;;;;;6154598;23;20021;-76
2022/09/03 07:24:05;;;;;;;3.75;1.67;;;23.40;70.60;;;;;;6181833;23;20025;-77
2022/09/03 07:26:35;;;;;;;1.50;1.23;;;23.60;68.20;;;;;;6180867;23;20075;-76
2022/09/03 07:29:03;;;;;;;2.70;1.67;;;23.50;65.70;;;;;;6181128;23;20024;-77
2022/09/03 07:31:37;;;;;;;1.48;1.38;;;23.50;65.20;;;;;;6152417;23;20052;-76
2022/09/03 07:34:07;;;;;;;2.00;1.55;;;23.90;65.00;;;;;;6182065;23;20516;-76
2022/09/03 07:36:40;;;;;;;1.83;1.73;;;24.50;64.00;;;;;;6180968;23;20035;-78
2022/09/03 07:39:07;;;;;;;5.28;1.88;;;24.70;62.80;;;;;;6181609;23;20379;-78
2022/09/03 07:41:36;;;;;;;1.60;1.50;;;24.80;59.80;;;;;;6182776;23;20021;-78
2022/09/03 07:44:05;;;;;;;1.55;1.40;;;24.20;60.40;;;;;;6154042;23;20128;-78
2022/09/03 07:46:38;;;;;;;1.70;1.60;;;23.80;61.40;;;;;;6155844;23;20023;-78
2022/09/03 07:49:06;;;;;;;1.50;1.40;;;22.60;62.30;;;;;;6154246;23;20029;-78
2022/09/03 07:51:37;;;;;;;2.90;1.80;;;21.40;65.40;;;;;;6182318;23;20029;-78
2022/09/03 07:54:08;;;;;;;4.05;2.20;;;21.10;69.10;;;;;;6182233;23;20061;-78
2022/09/03 07:56:37;;;;;;;8.65;2.00;;;20.50;71.10;;;;;;6182231;23;20029;-78
2022/09/03 07:59:05;;;;;;;2.08;1.98;;;20.00;71.30;;;;;;6178720;23;20025;-78
2022/09/03 08:01:34;;;;;;;2.55;1.75;;;19.60;71.70;;;;;;6181567;23;20017;-79
2022/09/03 08:04:05;;;;;;;2.00;1.55;;;19.30;73.40;;;;;;6182021;23;20021;-77
2022/09/03 08:06:34;;;;;;;4.55;3.35;;;19.00;74.40;;;;;;6179641;23;20021;-76
2022/09/03 08:09:04;;;;;;;3.72;1.60;;;18.70;76.30;;;;;;6181518;23;20104;-78
2022/09/03 08:11:33;;;;;;;5.10;2.13;;;18.30;75.20;;;;;;6181255;23;20029;-75
2022/09/03 08:14:05;;;;;;;2.38;1.55;;;17.70;77.20;;;;;;6182039;23;20025;-74
2022/09/03 08:16:35;;;;;;;5.83;2.50;;;17.20;77.50;;;;;;6180586;23;20353;-74
2022/09/03 08:19:04;;;;;;;2.92;1.75;;;16.80;78.00;;;;;;6182232;23;20024;-75
2022/09/03 08:21:32;;;;;;;1.95;1.55;;;16.50;79.60;;;;;;6181463;23;20017;-75
2022/09/03 08:24:01;;;;;;;2.10;1.90;;;16.30;80.40;;;;;;6181820;23;20021;-74
2022/09/03 08:26:31;;;;;;;3.97;2.00;;;16.80;81.60;;;;;;6153790;23;20419;-73
2022/09/03 08:28:58;;;;;;;1.60;1.50;;;;;;;;;;6181621;23;20025;-75
2022/09/03 08:31:27;;;;;;;3.80;1.65;;;20.10;75.20;;;;;;6180028;23;20103;-74
2022/09/03 08:33:57;;;;;;;3.85;1.60;;;21.50;71.10;;;;;;6155465;23;20046;-79
2022/09/03 08:36:29;;;;;;;3.20;1.90;;;22.40;65.20;;;;;;6180111;23;20031;-79
2022/09/03 08:38:58;;;;;;;3.15;2.72;;;22.50;65.00;;;;;;6181579;23;20335;-78
2022/09/03 08:41:36;;;;;;;2.45;1.92;;;21.60;64.70;;;;;;6181526;23;20021;-77
2022/09/03 08:44:20;;;;;;;1.55;1.35;;;20.80;68.30;;;;;;6179971;23;20135;-77
2022/09/03 08:46:54;;;;;;;1.83;1.73;;;19.80;67.60;;;;;;6181970;23;20032;-80
2022/09/03 08:49:26;;;;;;;1.23;1.13;;;18.90;70.00;;;;;;6180147;23;20025;-78
2022/09/03 08:52:01;;;;;;;2.42;1.80;;;18.20;73.30;;;;;;6180909;23;20366;-77
2022/09/03 08:54:31;;;;;;;1.88;1.77;;;17.80;76.10;;;;;;6154025;23;20101;-76
2022/09/03 08:57:02;;;;;;;2.70;2.47;;;17.50;75.70;;;;;;6181761;23;20108;-77
2022/09/03 08:59:31;;;;;;;2.10;1.48;;;17.40;76.40;;;;;;6180371;23;20025;-77
2022/09/03 09:02:11;;;;;;;1.75;1.60;;;17.30;76.20;;;;;;6181397;23;20505;-78
2022/09/03 09:04:53;;;;;;;5.43;4.97;;;17.10;77.30;;;;;;6180514;23;20108;-80
2022/09/03 09:07:29;;;;;;;1.80;1.60;;;16.90;78.50;;;;;;6181781;23;20343;-79
2022/09/03 09:10:05;;;;;;;2.08;1.48;;;16.80;78.90;;;;;;6181754;23;20021;-77
2022/09/03 09:12:42;;;;;;;1.50;1.40;;;16.70;79.80;;;;;;6179944;23;20084;-79
2022/09/03 09:15:14;;;;;;;3.42;1.73;;;16.70;80.50;;;;;;6181685;23;20425;-78
2022/09/03 09:18:06;;;;;;;2.22;1.90;;;16.80;81.30;;;;;;6181962;23;20021;-78
2022/09/03 09:20:41;;;;;;;7.47;2.13;;;17.00;81.70;;;;;;6180062;23;20023;-77
2022/09/03 09:23:15;;;;;;;2.67;2.17;;;17.40;83.20;;;;;;6181118;23;20055;-79
2022/09/03 09:25:49;;;;;;;1.92;1.80;;;18.00;81.60;;;;;;6153623;23;20094;-78
2022/09/03 09:28:21;;;;;;;6.00;2.20;;;18.40;79.40;;;;;;6179984;23;20028;-79
2022/09/03 09:30:50;;;;;;;;;;;18.50;77.80;;;;;;6179659;23;20024;-78
2022/09/03 09:33:19;;;;;;;2.30;2.10;;;18.40;78.20;;;;;;6181261;23;19958;-79
2022/09/03 09:35:48;;;;;;;2.35;2.15;;;18.30;79.60;;;;;;6177561;23;20017;-79
2022/09/03 09:38:29;;;;;;;2.85;1.92;;;18.20;78.20;;;;;;6180801;23;20021;-79
2022/09/03 09:40:57;;;;;;;2.45;1.67;;;18.10;76.90;;;;;;6179439;23;20501;-81
2022/09/03 09:43:24;;;;;;;1.92;1.70;;;17.90;77.20;;;;;;6182269;23;20024;-80
2022/09/03 09:45:54;;;;;;;1.60;1.50;;;18.00;77.60;;;;;;6180954;23;20052;-80
2022/09/03 09:48:30;;;;;;;4.97;2.38;;;17.90;76.60;;;;;;6179350;23;20029;-79
2022/09/03 09:51:06;;;;;;;2.15;1.70;;;17.70;76.30;;;;;;6154800;23;20053;-83
2022/09/03 09:53:35;;;;;;;1.55;1.45;;;17.80;77.20;;;;;;6182113;23;20072;-83
2022/09/03 09:56:03;;;;;;;2.15;1.77;;;17.90;76.80;;;;;;6156211;23;20135;-85
2022/09/03 09:58:33;;;;;;;3.35;1.80;;;18.00;77.40;;;;;;6154829;23;20064;-87
2022/09/03 10:01:12;;;;;;;5.22;1.67;;;18.20;77.60;;;;;;6184990;23;20087;-86
2022/09/03 10:03:49;;;;;;;1.80;1.70;;;18.40;77.30;;;;;;6181251;23;20025;-82
2022/09/03 10:09:14;;;;;;;1.67;1.58;;;19.00;76.00;;;;;;6153495;23;20032;-77
2022/09/03 10:11:49;;;;;;;;;;;19.50;74.10;;;;;;6156956;23;20028;-75
2022/09/03 10:14:23;;;;;;;2.70;2.40;;;19.70;72.90;;;;;;6181823;23;19966;-75
2022/09/03 10:16:59;;;;;;;2.00;1.90;;;19.50;73.80;;;;;;6180677;23;20413;-75
2022/09/03 10:19:38;;;;;;;1.60;1.50;;;19.80;73.20;;;;;;6182179;23;20354;-74
2022/09/03 10:22:17;;;;;;;3.85;1.80;;;20.40;69.60;;;;;;6155239;23;20036;-75
2022/09/03 10:24:59;;;;;;;2.45;1.63;;;20.90;68.90;;;;;;6182420;23;20021;-80
2022/09/03 10:27:28;;;;;;;2.33;1.83;;;21.30;68.80;;;;;;6154081;23;20104;-79
2022/09/03 10:29:55;;;;;;;2.72;1.83;;;21.20;69.20;;;;;;6183796;23;20027;-80
2022/09/03 10:32:35;;;;;;;2.90;1.90;;;20.50;70.30;;;;;;6155094;23;20067;-79
2022/09/03 10:35:11;;;;;;;4.47;2.03;;;20.10;72.20;;;;;;6181078;23;20056;-79
2022/09/03 10:37:44;;;;;;;3.13;1.50;;;20.40;71.70;;;;;;6182604;23;20087;-80
2022/09/03 10:40:35;;;;;;;1.80;1.70;;;20.80;68.60;;;;;;6180953;23;20021;-79
2022/09/03 10:43:28;;;;;;;1.27;1.27;;;21.00;67.40;;;;;;6181265;23;20017;-75
2022/09/03 10:46:04;;;;;;;2.95;1.70;;;21.30;67.70;;;;;;6152695;23;20025;-76
2022/09/03 10:49:15;;;;;;;1.52;1.40;;;21.30;65.90;;;;;;6182077;23;20025;-74
2022/09/03 10:51:52;;;;;;;1.90;1.80;;;21.10;65.90;;;;;;6179458;23;20021;-75
2022/09/03 10:54:36;;;;;;;1.95;1.63;;;20.60;66.20;;;;;;6185845;23;20113;-77
2022/09/03 10:57:27;;;;;;;1.58;1.30;;;20.10;67.30;;;;;;6184053;23;20442;-76
2022/09/03 11:00:08;;;;;;;3.50;1.10;;;19.90;68.40;;;;;;6182911;23;20112;-76
2022/09/03 11:03:03;;;;;;;2.33;1.13;;;19.90;66.00;;;;;;6154576;23;20017;-78
2022/09/03 11:05:37;;;;;;;1.40;1.30;;;20.10;63.10;;;;;;6182781;23;20023;-76
2022/09/03 11:08:15;;;;;;;4.22;1.20;;;20.30;64.60;;;;;;6182251;23;20020;-76
2022/09/03 11:10:50;;;;;;;1.38;1.27;;;20.70;63.40;;;;;;6155913;23;20025;-79
2022/09/03 11:13:26;;;;;;;1.63;1.52;;;20.80;62.30;;;;;;6181013;23;20021;-81
2022/09/03 11:15:59;;;;;;;1.80;1.70;;;20.80;64.50;;;;;;6182425;23;20447;-75
2022/09/03 11:18:34;;;;;;;1.85;1.70;;;20.70;66.50;;;;;;6181849;23;20557;-76
2022/09/03 11:21:10;;;;;;;1.63;1.52;;;20.90;67.30;;;;;;6181937;23;20525;-78
2022/09/03 11:23:43;;;;;;;2.35;2.03;;;21.70;65.50;;;;;;6153951;23;20031;-78
2022/09/03 11:26:14;;;;;;;1.67;1.58;;;22.60;59.70;;;;;;6180383;23;20541;-78
2022/09/03 11:28:55;;;;;;;2.22;1.40;;;22.10;59.40;;;;;;6154717;23;20072;-78
2022/09/03 11:31:33;;;;;;;1.80;1.70;;;21.30;60.00;;;;;;6179960;23;20164;-79
2022/09/03 11:34:08;;;;;;;1.90;1.80;;;20.40;64.00;;;;;;6182471;23;20031;-74
2022/09/03 11:36:38;;;;;;;1.60;1.50;;;19.50;65.80;;;;;;6181882;23;20024;-75
2022/09/03 11:39:22;;;;;;;3.17;1.40;;;18.70;66.70;;;;;;6181564;23;20522;-76
2022/09/03 11:42:01;;;;;;;1.77;1.67;;;18.00;68.00;;;;;;6179187;23;20048;-73
2022/09/03 11:44:38;;;;;;;2.50;1.55;;;17.60;71.40;;;;;;6155834;23;20029;-78
2022/09/03 11:47:16;;;;;;;6.75;2.00;;;17.70;72.60;;;;;;6155510;23;20025;-79
2022/09/03 11:49:50;;;;;;;2.70;1.75;;;17.90;71.40;;;;;;6153921;23;20477;-79
2022/09/03 11:52:30;;;;;;;2.53;1.48;;;17.90;70.80;;;;;;6182272;23;20029;-80
2022/09/03 11:54:58;;;;;;;1.33;1.33;;;18.30;73.30;;;;;;6181378;23;20481;-79
2022/09/03 11:57:29;;;;;;;2.35;1.80;;;19.10;71.30;;;;;;6184276;23;20043;-79
2022/09/03 12:00:12;;;;;;;2.92;1.60;;;19.90;69.20;;;;;;6179707;23;20509;-80
2022/09/03 12:02:46;;;;;;;1.40;1.30;;;19.70;68.70;;;;;;6181825;23;20025;-80
2022/09/03 12:05:30;;;;;;;2.58;1.40;;;20.20;67.00;;;;;;6181869;23;20331;-74
2022/09/03 12:08:39;;;;;;;2.05;1.50;;;19.70;66.50;;;;;;6180351;23;20039;-73
2022/09/03 12:11:35;;;;;;;5.25;2.90;;;19.70;69.40;;;;;;6149012;23;20041;-75
2022/09/03 12:14:17;;;;;;;2.55;1.00;;;20.00;67.70;;;;;;6180791;23;20429;-79
2022/09/03 12:17:13;;;;;;;3.83;1.30;;;20.40;64.70;;;;;;6154846;23;20067;-77
2022/09/03 12:19:51;;;;;;;2.08;1.27;;;20.10;67.00;;;;;;6154160;23;20091;-78
2022/09/03 12:22:24;;;;;;;1.30;1.20;;;20.60;67.10;;;;;;6179965;23;20021;-79
2022/09/03 12:24:57;;;;;;;1.42;1.20;;;19.60;67.20;;;;;;6154296;23;20025;-80
2022/09/03 12:27:28;;;;;;;1.20;1.10;;;18.80;70.60;;;;;;6178865;23;20127;-80
2022/09/03 12:29:59;;;;;;;1.30;1.00;;;18.60;72.40;;;;;;6179580;23;20466;-81
2022/09/03 12:32:35;;;;;;;4.10;1.20;;;19.10;70.00;;;;;;6151229;23;20032;-81
2022/09/03 12:35:16;;;;;;;1.02;1.02;;;20.00;67.40;;;;;;6155348;23;20021;-81
2022/09/03 12:37:46;;;;;;;1.60;1.50;;;22.00;63.30;;;;;;6154405;23;20545;-78
2022/09/03 12:40:22;;;;;;;1.15;0.90;;;23.70;60.00;;;;;;6182434;23;20013;-74
2022/09/03 12:42:50;;;;;;;1.98;0.95;;;24.60;57.80;;;;;;6177998;23;20021;-74
2022/09/03 12:45:22;;;;;;;2.88;1.50;;;24.90;57.80;;;;;;6180675;23;20032;-75
2022/09/03 12:47:54;;;;;;;2.15;1.40;;;25.10;56.60;;;;;;6181052;23;20084;-74
2022/09/03 12:50:24;;;;;;;2.95;1.40;;;25.30;56.40;;;;;;6180144;23;20079;-81
2022/09/03 12:52:58;;;;;;;1.73;1.50;;;26.40;55.10;;;;;;6180895;23;20072;-78
2022/09/03 12:55:34;;;;;;;1.70;1.60;;;27.70;52.70;;;;;;6129703;23;20528;-79
2022/09/03 12:58:10;;;;;;;1.58;1.48;;;28.50;52.40;;;;;;6181862;23;20355;-80
2022/09/03 13:00:45;;;;;;;2.30;2.10;;;28.10;51.80;;;;;;6181392;23;20025;-81
2022/09/03 13:03:21;;;;;;;3.42;1.70;;;27.60;50.10;;;;;;6181101;23;20035;-80
2022/09/03 13:05:57;;;;;;;2.35;1.55;;;25.30;52.00;;;;;;6181494;23;20025;-81
2022/09/03 13:08:28;;;;;;;1.40;1.30;;;23.40;56.10;;;;;;6180454;23;20437;-79
2022/09/03 13:10:59;;;;;;;2.00;1.27;;;21.80;58.30;;;;;;6182015;23;20241;-81
2022/09/03 13:13:30;;;;;;;1.40;1.30;;;21.00;62.00;;;;;;6179022;23;20075;-79
2022/09/03 13:16:27;;;;;;;1.50;1.40;;;22.80;60.40;;;;;;6155022;23;20020;-82
2022/09/03 13:19:05;;;;;;;1.70;1.00;;;25.10;56.20;;;;;;6155655;23;20028;-79
2022/09/03 13:21:46;;;;;;;2.33;1.20;;;27.10;53.20;;;;;;6181760;23;20052;-83
2022/09/03 13:24:49;;;;;;;1.63;1.33;;;28.30;50.30;;;;;;6182184;23;20018;-83
2022/09/03 13:27:27;;;;;;;1.52;1.00;;;28.50;49.40;;;;;;6180631;23;20029;-76